Time;durP1;ratioP1;P1;durP2;ratioP2;P2;SDS_P1;SDS_P2;PMS_P1;PMS_P2;Temp;Humidity;BMP_temperature;BMP_pressure;BME280_temperature;BME280_humidity;BME280_pressure;Samples;Min_cycle;Max_cycle;Signal;HPM_P1;HPM_P2
2023/06/12 00:01:41;;;;;;;;;;;;;;;19.13;41.53;97922.75;5071259;28;20337;-78
2023/06/12 00:04:09;;;;;;;;;;;;;;;19.18;40.83;97934.25;5072157;28;19928;-76
2023/06/12 00:06:38;;;;;;;;;;;;;;;19.17;40.81;97938.16;5072332;28;20405;-75
2023/06/12 00:09:10;;;;;;;;;;;;;;;19.15;41.99;97926.72;5106649;28;19928;-82
2023/06/12 00:11:44;;;;;;;;;;;;;;;19.10;41.64;97924.28;5084283;28;19925;-82
2023/06/12 00:14:13;;;;;;;;;;;;;;;19.01;41.81;97943.78;5080790;28;19988;-82
2023/06/12 00:16:42;;;;;;;;;;;;;;;19.07;41.51;97934.06;5098251;28;19948;-81
2023/06/12 00:19:11;;;;;;;;;;;;;;;18.99;42.28;97940.59;5058460;28;19925;-77
2023/06/12 00:21:40;;;;;;;;;;;;;;;19.03;42.28;97937.94;5070593;28;19928;-77
2023/06/12 00:24:09;;;;;;;;;;;;;;;18.94;42.40;97942.88;5096693;22;19969;-62
2023/06/12 00:26:37;;;;;;;;;;;;;;;18.95;42.56;97944.44;5093743;28;19964;-62
2023/06/12 00:29:05;;;;;;;;;;;;;;;18.93;42.41;97936.56;5084646;28;19935;-61
2023/06/12 00:31:33;;;;;;;;;;;;;;;18.91;42.32;97935.31;5088235;28;19965;-62
2023/06/12 00:34:00;;;;;;;;;;;;;;;18.98;42.71;97938.22;5089244;28;20018;-61
2023/06/12 00:36:28;;;;;;;;;;;;;;;18.65;43.23;97927.75;5069659;28;19955;-61
2023/06/12 00:38:57;;;;;;;;;;;;;;;18.52;43.11;97927.91;5091733;28;19920;-62
2023/06/12 00:41:25;;;;;;;;;;;;;;;18.63;43.18;97930.06;5073190;28;19980;-61
2023/06/12 00:43:53;;;;;;;;;;;;;;;18.54;43.43;97924.81;5089720;28;19956;-65
2023/06/12 00:46:20;;;;;;;;;;;;;;;18.48;43.75;97932.56;5071837;28;20274;-61
2023/06/12 00:48:51;;;;;;;;;;;;;;;18.47;44.13;97935.63;5095520;28;20364;-61
2023/06/12 00:51:20;;;;;;;;;;;;;;;18.53;43.79;97928.69;5082425;28;19930;-61
2023/06/12 00:53:52;;;;;;;;;;;;;;;18.49;43.74;97936.09;5058422;28;19927;-61
2023/06/12 00:56:21;;;;;;;;;;;;;;;18.55;43.72;97931.88;5088098;28;19927;-61
2023/06/12 00:58:49;;;;;;;;;;;;;;;18.28;44.38;97939.19;5073221;28;19978;-61
2023/06/12 01:01:20;;;;;;;;;;;;;;;18.12;44.97;97936.50;5077513;28;19920;-61
2023/06/12 01:03:49;;;;;;;;;;;;;;;18.10;45.04;97933.31;5093591;28;19919;-61
2023/06/12 01:06:16;;;;;;;;;;;;;;;18.23;44.77;97934.00;5083005;28;20385;-61
2023/06/12 01:08:49;;;;;;;;;;;;;;;18.00;45.55;97928.38;5068784;28;19955;-61
2023/06/12 01:11:17;;;;;;;;;;;;;;;18.19;44.88;97930.34;5074980;28;19920;-61
2023/06/12 01:13:47;;;;;;;;;;;;;;;18.16;45.17;97934.63;5072878;28;19927;-61
2023/06/12 01:16:14;;;;;;;;;;;;;;;18.08;45.12;97927.38;5080937;28;19927;-61
2023/06/12 01:18:43;;;;;;;;;;;;;;;18.14;45.45;97934.19;5094127;28;20449;-61
2023/06/12 01:21:13;;;;;;;;;;;;;;;18.10;45.73;97930.56;5077488;28;21005;-61
2023/06/12 01:23:49;;;;;;;;;;;;;;;17.92;45.90;97937.63;5094828;28;19920;-61
2023/06/12 01:26:25;;;;;;;;;;;;;;;18.00;46.00;97937.44;5090206;28;19932;-61
2023/06/12 01:29:03;;;;;;;;;;;;;;;17.95;46.04;97929.47;5071368;28;19924;-61
2023/06/12 01:31:33;;;;;;;;;;;;;;;17.94;46.21;97940.81;5074387;28;20051;-61
2023/06/12 01:34:07;;;;;;;;;;;;;;;17.88;46.56;97947.75;5085581;28;20381;-61
2023/06/12 01:36:36;;;;;;;;;;;;;;;17.85;46.51;97946.53;5073748;28;19932;-61
2023/06/12 01:39:05;;;;;;;;;;;;;;;17.92;46.69;97954.91;5083540;28;20015;-61
2023/06/12 01:41:33;;;;;;;;;;;;;;;17.94;46.74;97951.81;5062151;28;20353;-61
2023/06/12 01:44:08;;;;;;;;;;;;;;;18.04;46.30;97952.03;5087889;28;19933;-61
2023/06/12 01:46:37;;;;;;;;;;;;;;;17.91;46.91;97952.53;5078362;28;19966;-61
2023/06/12 01:49:06;;;;;;;;;;;;;;;17.82;47.04;97949.97;5064564;28;19924;-61
2023/06/12 01:51:34;;;;;;;;;;;;;;;17.71;46.93;97944.19;5083289;28;20014;-61
2023/06/12 01:54:03;;;;;;;;;;;;;;;17.72;47.18;97948.56;5071820;28;19927;-61
2023/06/12 01:56:30;;;;;;;;;;;;;;;17.54;47.64;97945.38;5075402;28;19977;-61
2023/06/12 01:58:58;;;;;;;;;;;;;;;17.42;48.13;97942.75;5086766;28;20075;-61
2023/06/12 02:01:39;;;;;;;;;;;;;;;17.44;48.08;97940.44;5081421;28;19920;-61
2023/06/12 02:04:11;;;;;;;;;;;;;;;17.53;48.06;97943.00;5084750;28;20003;-61
2023/06/12 02:06:39;;;;;;;;;;;;;;;17.57;47.93;97943.84;5084128;28;20310;-60
2023/06/12 02:09:07;;;;;;;;;;;;;;;17.47;48.03;97944.41;5087184;28;19920;-61
2023/06/12 02:11:35;;;;;;;;;;;;;;;17.34;48.56;97943.72;5100767;28;19931;-61
2023/06/12 02:14:02;;;;;;;;;;;;;;;17.42;48.31;97942.75;5082454;28;19935;-61
2023/06/12 02:16:31;;;;;;;;;;;;;;;17.45;48.30;97941.22;5072713;28;20330;-61
2023/06/12 02:18:59;;;;;;;;;;;;;;;17.53;48.03;97949.28;5075853;28;19920;-61
2023/06/12 02:21:29;;;;;;;;;;;;;;;17.50;48.31;97951.94;5076202;28;19942;-61
2023/06/12 02:23:58;;;;;;;;;;;;;;;17.48;48.51;97946.81;5068326;28;19920;-61
2023/06/12 02:26:28;;;;;;;;;;;;;;;17.14;49.13;97953.78;5078026;28;19986;-61
2023/06/12 02:29:08;;;;;;;;;;;;;;;17.25;48.86;97946.63;5067439;28;19927;-61
2023/06/12 02:31:40;;;;;;;;;;;;;;;17.20;49.08;97946.88;5068762;28;20324;-62
2023/06/12 02:34:10;;;;;;;;;;;;;;;17.24;48.94;97946.97;5082691;28;19997;-64
2023/06/12 02:36:41;;;;;;;;;;;;;;;17.15;49.12;97946.34;5087692;28;19942;-61
2023/06/12 02:39:18;;;;;;;;;;;;;;;17.21;48.89;97942.22;5070464;28;19925;-61
2023/06/12 02:41:48;;;;;;;;;;;;;;;17.18;49.13;97945.66;5071749;28;19924;-61
2023/06/12 02:44:16;;;;;;;;;;;;;;;17.14;49.41;97942.81;5069909;28;20007;-61
2023/06/12 02:46:53;;;;;;;;;;;;;;;17.22;49.28;97943.81;5070681;28;19924;-61
2023/06/12 02:49:25;;;;;;;;;;;;;;;16.98;49.72;97944.75;5070339;28;19924;-61
2023/06/12 02:51:54;;;;;;;;;;;;;;;17.12;49.59;97938.84;5064495;28;19971;-60
2023/06/12 02:54:22;;;;;;;;;;;;;;;16.96;50.18;97939.63;5057815;28;19964;-62
2023/06/12 02:56:51;;;;;;;;;;;;;;;17.01;49.71;97928.38;5058047;28;20334;-61
2023/06/12 02:59:20;;;;;;;;;;;;;;;17.12;49.71;97934.13;5059430;28;19925;-61
2023/06/12 03:01:47;;;;;;;;;;;;;;;16.83;50.24;97938.09;5084541;28;19974;-61
2023/06/12 03:04:27;;;;;;;;;;;;;;;16.99;49.92;97935.34;5069899;28;20015;-61
2023/06/12 03:06:56;;;;;;;;;;;;;;;16.94;50.40;97936.44;5078696;28;19921;-61
2023/06/12 03:09:24;;;;;;;;;;;;;;;16.92;49.96;97935.19;5064607;28;19978;-61
2023/06/12 03:11:53;;;;;;;;;;;;;;;16.74;50.42;97934.72;5070782;28;19924;-61
2023/06/12 03:14:24;;;;;;;;;;;;;;;16.79;50.72;97939.97;5072063;28;19937;-61
2023/06/12 03:16:52;;;;;;;;;;;;;;;16.87;50.39;97929.94;5066282;28;19921;-61
2023/06/12 03:19:19;;;;;;;;;;;;;;;16.72;51.12;97937.81;5071378;28;19989;-61
2023/06/12 03:21:47;;;;;;;;;;;;;;;16.81;50.75;97934.09;5070302;28;19943;-61
2023/06/12 03:24:16;;;;;;;;;;;;;;;16.95;50.56;97931.75;5069352;28;20419;-61
2023/06/12 03:26:44;;;;;;;;;;;;;;;16.68;51.42;97927.88;5073847;28;19924;-61
2023/06/12 03:29:13;;;;;;;;;;;;;;;16.58;51.68;97929.16;5079031;28;19974;-61
2023/06/12 03:31:43;;;;;;;;;;;;;;;16.68;51.28;97928.66;5070869;28;19970;-61
2023/06/12 03:34:11;;;;;;;;;;;;;;;16.81;50.88;97928.63;5070601;28;19977;-61
2023/06/12 03:36:39;;;;;;;;;;;;;;;16.64;51.48;97927.75;5067220;28;19967;-61
2023/06/12 03:39:11;;;;;;;;;;;;;;;16.80;51.13;97927.81;5067186;28;19921;-62
2023/06/12 03:41:51;;;;;;;;;;;;;;;16.74;51.40;97932.78;5065536;28;20217;-61
2023/06/12 03:44:19;;;;;;;;;;;;;;;16.78;51.22;97924.66;5072041;28;19974;-61
2023/06/12 03:46:48;;;;;;;;;;;;;;;16.57;51.85;97926.78;5069908;28;19927;-61
2023/06/12 03:49:16;;;;;;;;;;;;;;;16.67;51.68;97939.97;5070747;28;19931;-61
2023/06/12 03:51:44;;;;;;;;;;;;;;;16.58;52.28;97937.41;5069810;28;19963;-61
2023/06/12 03:54:14;;;;;;;;;;;;;;;16.71;51.79;97935.41;5069962;28;20307;-61
2023/06/12 03:56:44;;;;;;;;;;;;;;;16.72;51.69;97940.56;5069556;28;19920;-61
2023/06/12 03:59:13;;;;;;;;;;;;;;;16.57;52.27;97940.50;5067745;28;20437;-61
2023/06/12 04:01:42;;;;;;;;;;;;;;;16.69;52.15;97941.22;5070521;28;19921;-61
2023/06/12 04:04:11;;;;;;;;;;;;;;;16.57;52.47;97944.03;5063517;28;19939;-61
2023/06/12 04:06:40;;;;;;;;;;;;;;;16.72;52.12;97935.09;5086589;28;19924;-61
2023/06/12 04:09:08;;;;;;;;;;;;;;;16.73;52.42;97939.41;5069992;28;19951;-61
2023/06/12 04:11:38;;;;;;;;;;;;;;;16.91;51.92;97939.09;5077873;28;19920;-61
2023/06/12 04:14:08;;;;;;;;;;;;;;;16.87;51.87;97947.22;5063924;28;19942;-61
2023/06/12 04:16:36;;;;;;;;;;;;;;;16.99;52.08;97946.34;5060732;28;19974;-61
2023/06/12 04:19:04;;;;;;;;;;;;;;;16.93;51.68;97951.28;5062549;28;19962;-61
2023/06/12 04:21:35;;;;;;;;;;;;;;;16.94;51.84;97954.84;5059341;28;19921;-61
2023/06/12 04:24:04;;;;;;;;;;;;;;;16.93;51.99;97966.97;5078027;28;19959;-63
2023/06/12 04:26:34;;;;;;;;;;;;;;;16.84;52.55;97960.84;5072394;28;19920;-61
2023/06/12 04:29:02;;;;;;;;;;;;;;;16.86;51.94;97966.78;5081765;28;19921;-61
2023/06/12 04:31:33;;;;;;;;;;;;;;;16.88;52.35;97968.00;5085979;28;19920;-60
2023/06/12 04:34:01;;;;;;;;;;;;;;;16.81;52.07;97975.25;5066948;28;19990;-61
2023/06/12 04:36:33;;;;;;;;;;;;;;;16.89;52.40;97974.31;5074953;28;19934;-61
2023/06/12 04:39:01;;;;;;;;;;;;;;;17.05;52.25;97968.84;5072500;28;20353;-60
2023/06/12 04:41:32;;;;;;;;;;;;;;;17.13;51.93;97971.41;5077947;28;20666;-61
2023/06/12 04:44:03;;;;;;;;;;;;;;;17.28;51.19;97964.34;5084832;28;20454;-61
2023/06/12 04:46:36;;;;;;;;;;;;;;;17.17;51.36;97975.06;5080188;28;19920;-61
2023/06/12 04:49:03;;;;;;;;;;;;;;;17.22;50.98;97976.75;5083587;28;20368;-61
2023/06/12 04:51:31;;;;;;;;;;;;;;;17.34;51.04;97968.41;5087397;28;19954;-61
2023/06/12 04:54:01;;;;;;;;;;;;;;;17.51;50.96;97970.81;5071703;28;19943;-61
2023/06/12 04:56:32;;;;;;;;;;;;;;;17.49;51.14;97973.13;5071665;28;20297;-62
2023/06/12 04:59:02;;;;;;;;;;;;;;;17.39;50.99;97964.63;5067660;28;20340;-61
2023/06/12 05:01:32;;;;;;;;;;;;;;;17.55;51.10;97970.91;5086899;28;20349;-61
2023/06/12 05:04:02;;;;;;;;;;;;;;;17.31;51.05;97963.66;5074370;28;19974;-61
2023/06/12 05:06:30;;;;;;;;;;;;;;;17.51;50.38;97961.75;5070859;28;19932;-62
2023/06/12 05:09:07;;;;;;;;;;;;;;;17.71;50.41;97977.19;5069330;28;20384;-61
2023/06/12 05:11:35;;;;;;;;;;;;;;;17.78;50.22;97966.38;5065587;28;20005;-62
2023/06/12 05:14:03;;;;;;;;;;;;;;;17.79;49.65;97967.19;5082121;28;19928;-61
2023/06/12 05:16:32;;;;;;;;;;;;;;;17.87;49.62;97979.13;5075084;28;19930;-62
2023/06/12 05:18:59;;;;;;;;;;;;;;;17.91;50.45;97974.53;5073024;28;19973;-61
2023/06/12 05:21:30;;;;;;;;;;;;;;;18.02;48.94;97978.31;5071887;28;19932;-62
2023/06/12 05:23:58;;;;;;;;;;;;;;;17.93;49.06;97978.50;5073136;28;19932;-61
2023/06/12 05:26:27;;;;;;;;;;;;;;;18.12;49.04;97985.22;5075750;28;20636;-61
2023/06/12 05:28:54;;;;;;;;;;;;;;;18.17;48.11;97985.72;5075714;28;19926;-61
2023/06/12 05:31:25;;;;;;;;;;;;;;;18.15;48.69;97981.72;5085338;28;20007;-61
2023/06/12 05:33:54;;;;;;;;;;;;;;;18.25;49.05;97994.91;5088602;28;20048;-62
2023/06/12 05:36:22;;;;;;;;;;;;;;;18.35;48.14;97994.34;5070928;28;19931;-61
2023/06/12 05:38:51;;;;;;;;;;;;;;;18.35;47.98;97988.84;5066146;28;19993;-62
2023/06/12 05:41:20;;;;;;;;;;;;;;;18.41;48.67;97989.34;5078664;28;20022;-61
2023/06/12 05:43:50;;;;;;;;;;;;;;;18.46;47.73;97994.56;5072442;28;20014;-61
2023/06/12 05:46:18;;;;;;;;;;;;;;;18.53;48.23;97989.22;5068044;28;19927;-62
2023/06/12 05:48:45;;;;;;;;;;;;;;;18.57;47.93;97988.13;5073785;28;20331;-61
2023/06/12 05:51:13;;;;;;;;;;;;;;;18.62;47.88;97989.78;5070583;28;19921;-61
2023/06/12 05:53:44;;;;;;;;;;;;;;;18.48;47.55;98003.25;5071977;28;20030;-61
2023/06/12 05:56:15;;;;;;;;;;;;;;;18.66;47.87;97998.94;5072622;28;19933;-61
2023/06/12 05:58:44;;;;;;;;;;;;;;;18.58;47.33;97997.19;5072723;28;19932;-61
2023/06/12 06:01:16;;;;;;;;;;;;;;;18.47;48.32;97996.16;5071670;28;19936;-61
2023/06/12 06:03:54;;;;;;;;;;;;;;;18.57;48.15;97995.59;5058023;28;19938;-61
2023/06/12 06:06:22;;;;;;;;;;;;;;;18.65;48.38;97997.34;5072448;28;19926;-62
2023/06/12 06:08:51;;;;;;;;;;;;;;;18.81;47.60;98000.84;5080484;28;20407;-61
2023/06/12 06:11:24;;;;;;;;;;;;;;;18.86;47.50;97997.00;5074501;28;19965;-63
2023/06/12 06:13:52;;;;;;;;;;;;;;;18.92;47.04;98000.25;5081646;28;20299;-61
2023/06/12 06:16:20;;;;;;;;;;;;;;;19.10;47.62;98001.38;5074736;28;19924;-61
2023/06/12 06:18:48;;;;;;;;;;;;;;;19.09;47.46;97999.78;5084150;28;19936;-61
2023/06/12 06:21:18;;;;;;;;;;;;;;;19.22;46.55;98003.94;5074452;28;20514;-61
2023/06/12 06:23:45;;;;;;;;;;;;;;;19.09;46.80;98008.06;5072513;28;19927;-60
2023/06/12 06:26:16;;;;;;;;;;;;;;;19.08;46.88;98011.97;5080907;28;19924;-62
2023/06/12 06:28:45;;;;;;;;;;;;;;;19.05;47.10;98016.22;5082501;28;19969;-61
2023/06/12 06:31:22;;;;;;;;;;;;;;;18.96;47.51;98009.34;5085130;28;19920;-61
2023/06/12 06:33:52;;;;;;;;;;;;;;;19.21;47.88;98007.06;5086414;28;20231;-61
2023/06/12 06:36:23;;;;;;;;;;;;;;;19.38;46.91;98007.38;5076064;28;20278;-61
2023/06/12 06:38:51;;;;;;;;;;;;;;;19.41;46.67;98010.59;5074943;28;19926;-61
2023/06/12 06:41:19;;;;;;;;;;;;;;;19.39;46.90;98008.22;5090497;28;20411;-61
2023/06/12 06:43:48;;;;;;;;;;;;;;;19.47;47.43;98009.13;5076047;28;19920;-61
2023/06/12 06:46:16;;;;;;;;;;;;;;;19.76;47.12;98004.88;5082427;28;19947;-61
2023/06/12 06:48:44;;;;;;;;;;;;;;;19.87;47.33;98016.91;5079822;28;20246;-61
2023/06/12 06:51:14;;;;;;;;;;;;;;;19.97;46.66;98021.75;5096375;28;19947;-61
2023/06/12 06:53:42;;;;;;;;;;;;;;;20.05;45.69;98006.16;5066733;28;19981;-61
2023/06/12 06:56:10;;;;;;;;;;;;;;;20.03;45.90;98011.25;5085391;28;19920;-61
2023/06/12 06:58:38;;;;;;;;;;;;;;;20.17;46.81;98005.13;5076683;28;20257;-61
2023/06/12 07:01:07;;;;;;;;;;;;;;;20.38;45.70;98008.97;5073201;28;20015;-61
2023/06/12 07:03:35;;;;;;;;;;;;;;;20.34;46.09;98008.13;5074057;28;20019;-61
2023/06/12 07:06:04;;;;;;;;;;;;;;;20.55;44.88;98009.59;5077929;28;19982;-61
2023/06/12 07:08:31;;;;;;;;;;;;;;;20.65;46.09;98014.47;5072194;28;19924;-61
2023/06/12 07:11:00;;;;;;;;;;;;;;;20.73;45.96;98007.88;5069725;28;19920;-61
2023/06/12 07:13:29;;;;;;;;;;;;;;;20.79;45.23;98008.34;5064116;28;19925;-61
2023/06/12 07:15:57;;;;;;;;;;;;;;;20.87;44.98;98010.00;5069782;28;19920;-62
2023/06/12 07:18:29;;;;;;;;;;;;;;;20.89;44.34;98008.47;5074101;28;19955;-61
2023/06/12 07:20:57;;;;;;;;;;;;;;;20.86;45.13;97998.16;5073547;28;19994;-61
2023/06/12 07:23:25;;;;;;;;;;;;;;;21.15;45.70;98007.56;5087586;28;19955;-61
2023/06/12 07:25:53;;;;;;;;;;;;;;;21.21;44.54;98002.50;5073902;28;19935;-61
2023/06/12 07:28:21;;;;;;;;;;;;;;;21.41;44.69;98012.22;5081302;28;19967;-61
2023/06/12 07:30:50;;;;;;;;;;;;;;;21.51;44.38;98007.13;5083240;28;20026;-62
2023/06/12 07:33:18;;;;;;;;;;;;;;;21.59;43.55;98008.81;5083528;28;20306;-61
2023/06/12 07:35:48;;;;;;;;;;;;;;;21.64;42.78;98012.00;5063788;28;19927;-61
2023/06/12 07:38:15;;;;;;;;;;;;;;;21.64;42.56;98006.47;5073301;28;19926;-63
2023/06/12 07:40:43;;;;;;;;;;;;;;;21.61;42.82;98004.47;5096532;28;19920;-62
2023/06/12 07:43:12;;;;;;;;;;;;;;;21.78;42.92;98005.78;5072011;28;19960;-61
2023/06/12 07:45:40;;;;;;;;;;;;;;;21.86;42.70;98007.44;5075377;28;19924;-62
2023/06/12 07:48:08;;;;;;;;;;;;;;;21.82;42.73;98001.09;5076186;28;19943;-61
2023/06/12 07:50:42;;;;;;;;;;;;;;;21.89;41.80;98001.16;5087869;28;19919;-61
2023/06/12 07:53:11;;;;;;;;;;;;;;;21.84;41.89;98004.28;5071145;28;20384;-61
2023/06/12 07:55:55;;;;;;;;;;;;;;;21.64;42.66;98006.47;5093824;28;19919;-62
2023/06/12 07:58:27;;;;;;;;;;;;;;;21.53;41.83;98002.03;5083420;28;19962;-61
2023/06/12 08:00:56;;;;;;;;;;;;;;;21.75;41.66;98003.81;5081375;28;19928;-61
2023/06/12 08:03:25;;;;;;;;;;;;;;;21.65;43.01;98008.06;5075385;28;20353;-61
2023/06/12 08:05:58;;;;;;;;;;;;;;;21.84;42.42;98007.03;5069170;28;19920;-61
2023/06/12 08:08:30;;;;;;;;;;;;;;;21.95;41.08;97996.84;5079150;28;19950;-61
2023/06/12 08:11:01;;;;;;;;;;;;;;;22.08;40.98;98007.59;5067591;28;20019;-61
2023/06/12 08:13:29;;;;;;;;;;;;;;;21.95;40.20;98009.88;5073411;28;20028;-61
2023/06/12 08:15:58;;;;;;;;;;;;;;;21.89;40.86;98006.69;5062589;28;22331;-62
2023/06/12 08:18:26;;;;;;;;;;;;;;;22.04;39.29;98006.78;5063261;28;20648;-61
2023/06/12 08:20:55;;;;;;;;;;;;;;;21.97;38.95;97996.47;5074010;28;20002;-63
2023/06/12 08:23:24;;;;;;;;;;;;;;;21.99;40.88;97994.09;5061895;28;20278;-64
2023/06/12 08:25:54;;;;;;;;;;;;;;;22.22;38.96;97996.66;5060443;28;19924;-61
2023/06/12 08:28:22;;;;;;;;;;;;;;;22.18;39.20;97991.09;5065651;28;19928;-61
2023/06/12 08:30:57;;;;;;;;;;;;;;;22.17;39.81;97988.72;5065852;28;19921;-62
2023/06/12 08:33:25;;;;;;;;;;;;;;;22.18;38.26;97990.31;5079791;28;20010;-61
2023/06/12 08:35:53;;;;;;;;;;;;;;;22.16;37.40;97990.69;5061813;28;19936;-61
2023/06/12 08:38:21;;;;;;;;;;;;;;;22.19;37.95;97983.59;5067887;28;19928;-61
2023/06/12 08:40:50;;;;;;;;;;;;;;;22.46;37.21;97984.91;5077730;28;20369;-61
2023/06/12 08:43:20;;;;;;;;;;;;;;;22.39;36.63;97989.63;5058993;28;20380;-61
2023/06/12 08:45:48;;;;;;;;;;;;;;;22.35;37.24;97977.75;5064658;28;19920;-61
2023/06/12 08:48:17;;;;;;;;;;;;;;;22.60;36.33;97977.88;5058056;28;20581;-62
2023/06/12 08:50:46;;;;;;;;;;;;;;;22.59;35.63;97976.28;5065650;28;19946;-61
2023/06/12 08:53:14;;;;;;;;;;;;;;;22.58;36.47;97981.00;5058337;28;20423;-61
2023/06/12 08:55:42;;;;;;;;;;;;;;;22.61;35.05;97971.13;5050553;28;19936;-61
2023/06/12 08:58:10;;;;;;;;;;;;;;;22.68;37.51;97973.94;5063234;28;21302;-61
2023/06/12 09:00:40;;;;;;;;;;;;;;;22.81;36.40;97983.47;5063454;28;19993;-61
2023/06/12 09:03:08;;;;;;;;;;;;;;;22.90;34.67;97980.34;5066194;28;19927;-61
2023/06/12 09:05:37;;;;;;;;;;;;;;;22.90;35.26;97980.34;5062459;28;20297;-61
2023/06/12 09:08:05;;;;;;;;;;;;;;;22.96;35.45;97970.50;5060264;28;19921;-61
2023/06/12 09:10:33;;;;;;;;;;;;;;;22.99;35.75;97978.03;5061475;28;19946;-61
2023/06/12 09:13:06;;;;;;;;;;;;;;;23.13;35.98;97969.75;5065529;28;20324;-61
2023/06/12 09:15:34;;;;;;;;;;;;;;;23.00;36.60;97966.53;5064216;28;19920;-61
2023/06/12 09:18:08;;;;;;;;;;;;;;;23.07;35.91;97973.31;5058405;28;20017;-61
2023/06/12 09:20:37;;;;;;;;;;;;;;;23.05;35.67;97965.38;5071115;28;19924;-61
2023/06/12 09:23:10;;;;;;;;;;;;;;;23.05;38.05;97965.38;5067091;28;20007;-61
2023/06/12 09:25:39;;;;;;;;;;;;;;;23.12;35.51;97975.69;5066385;28;19928;-61
2023/06/12 09:28:09;;;;;;;;;;;;;;;23.09;35.66;97970.91;5077277;28;19924;-61
2023/06/12 09:30:38;;;;;;;;;;;;;;;23.31;34.90;97967.00;5060567;28;20262;-61
2023/06/12 09:33:08;;;;;;;;;;;;;;;23.28;35.65;97956.72;5064884;28;19989;-61
2023/06/12 09:35:49;;;;;;;;;;;;;;;23.29;34.89;97963.03;5067990;28;19924;-61
2023/06/12 09:38:17;;;;;;;;;;;;;;;23.29;34.16;97969.38;5061079;28;20008;-61
2023/06/12 09:40:46;;;;;;;;;;;;;;;23.25;34.82;97968.56;5066477;28;19928;-61
2023/06/12 09:43:16;;;;;;;;;;;;;;;23.29;34.98;97963.03;5070786;28;19964;-61
2023/06/12 09:45:48;;;;;;;;;;;;;;;23.39;35.96;97965.81;5070156;28;19921;-61
2023/06/12 09:48:20;;;;;;;;;;;;;;;23.46;37.15;97963.06;5067060;28;19920;-61
2023/06/12 09:50:51;;;;;;;;;;;;;;;23.49;35.07;97955.94;5063518;28;19928;-61
2023/06/12 09:53:22;;;;;;;;;;;;;;;23.45;33.87;97972.56;5067425;28;19920;-61
2023/06/12 09:55:50;;;;;;;;;;;;;;;23.60;34.99;97978.13;5065692;28;19921;-61
2023/06/12 09:58:18;;;;;;;;;;;;;;;23.57;34.60;97970.56;5064070;28;19977;-61
2023/06/12 10:00:46;;;;;;;;;;;;;;;23.76;34.26;97975.78;5082881;28;19951;-61
2023/06/12 10:03:14;;;;;;;;;;;;;;;23.74;35.32;97964.25;5058320;28;19993;-61
2023/06/12 10:05:44;;;;;;;;;;;;;;;23.64;33.66;97968.63;5058535;28;20535;-61
2023/06/12 10:08:12;;;;;;;;;;;;;;;23.66;33.39;97957.16;5066434;28;20415;-61
2023/06/12 10:10:43;;;;;;;;;;;;;;;23.71;33.40;97965.06;5066805;28;19956;-61
2023/06/12 10:13:10;;;;;;;;;;;;;;;23.70;33.25;97960.69;5059829;28;19956;-61
2023/06/12 10:15:39;;;;;;;;;;;;;;;23.81;34.82;97936.53;5056489;28;19925;-61
2023/06/12 10:18:08;;;;;;;;;;;;;;;23.90;33.04;97945.22;5058483;28;19925;-61
2023/06/12 10:20:36;;;;;;;;;;;;;;;23.84;35.14;97932.16;5063377;28;19928;-61
2023/06/12 10:23:06;;;;;;;;;;;;;;;23.75;35.84;97938.88;5063543;28;19932;-61
2023/06/12 10:25:34;;;;;;;;;;;;;;;23.84;33.26;97948.81;5079556;28;20023;-61
2023/06/12 10:28:02;;;;;;;;;;;;;;;23.88;34.53;97946.81;5083888;28;19989;-61
2023/06/12 10:30:32;;;;;;;;;;;;;;;23.84;33.18;97937.69;5082166;28;19934;-61
2023/06/12 10:33:08;;;;;;;;;;;;;;;23.90;33.49;97936.88;5072697;28;19924;-61
2023/06/12 10:35:39;;;;;;;;;;;;;;;23.93;32.83;97930.56;5073922;28;19947;-61
2023/06/12 10:38:11;;;;;;;;;;;;;;;23.82;34.17;97920.69;5073162;28;19928;-61
2023/06/12 10:40:39;;;;;;;;;;;;;;;23.64;32.88;97932.56;5077604;28;20373;-61
2023/06/12 10:43:15;;;;;;;;;;;;;;;23.49;35.14;97929.00;5062764;28;19930;-61
2023/06/12 10:45:43;;;;;;;;;;;;;;;23.62;32.81;97918.28;5078994;28;19924;-61
2023/06/12 10:48:20;;;;;;;;;;;;;;;23.76;32.43;97920.28;5077007;28;19924;-61
2023/06/12 10:50:49;;;;;;;;;;;;;;;23.77;31.79;97921.88;5077220;28;20020;-61
2023/06/12 10:53:20;;;;;;;;;;;;;;;23.98;32.53;97921.03;5076920;28;19920;-61
2023/06/12 10:55:55;;;;;;;;;;;;;;;23.99;32.09;97917.06;5076669;28;20199;-62
2023/06/12 10:58:25;;;;;;;;;;;;;;;24.02;31.38;97917.06;5071480;28;19964;-65
2023/06/12 11:00:53;;;;;;;;;;;;;;;23.82;31.67;97907.59;5079289;28;19955;-61
2023/06/12 11:03:22;;;;;;;;;;;;;;;23.68;32.66;97911.16;5077588;28;20333;-61
2023/06/12 11:05:54;;;;;;;;;;;;;;;23.83;32.19;97909.16;5076945;28;20259;-62
2023/06/12 11:08:24;;;;;;;;;;;;;;;23.84;32.08;97907.97;5080079;28;19924;-61
2023/06/12 11:10:52;;;;;;;;;;;;;;;23.64;33.04;97920.69;5082335;28;19927;-61
2023/06/12 11:13:22;;;;;;;;;;;;;;;23.63;31.19;97911.56;5058203;28;19920;-61
2023/06/12 11:15:51;;;;;;;;;;;;;;;23.45;31.36;97910.78;5072689;28;20370;-61
2023/06/12 11:18:19;;;;;;;;;;;;;;;23.39;31.54;97896.53;5062634;28;19939;-61
2023/06/12 11:20:51;;;;;;;;;;;;;;;23.66;30.57;97893.34;5077870;28;19958;-61
2023/06/12 11:23:21;;;;;;;;;;;;;;;23.67;31.59;97887.41;5068109;28;20317;-61
2023/06/12 11:25:52;;;;;;;;;;;;;;;23.90;30.87;97898.03;5060545;28;20011;-61
2023/06/12 11:28:20;;;;;;;;;;;;;;;23.87;31.14;97896.09;5052536;28;19971;-62
2023/06/12 11:30:49;;;;;;;;;;;;;;;23.84;31.14;97893.31;5057245;28;19921;-62
2023/06/12 11:33:24;;;;;;;;;;;;;;;23.78;31.41;97896.50;5053400;28;19928;-61
2023/06/12 11:35:52;;;;;;;;;;;;;;;24.00;30.29;97885.34;5059082;28;19990;-62
2023/06/12 11:38:21;;;;;;;;;;;;;;;24.05;29.67;97888.50;5057782;28;20003;-65
2023/06/12 11:40:53;;;;;;;;;;;;;;;23.98;31.92;97884.97;5059787;28;19936;-61
2023/06/12 11:43:22;;;;;;;;;;;;;;;24.14;31.56;97885.31;5062602;28;19928;-62
2023/06/12 11:45:52;;;;;;;;;;;;;;;24.10;32.09;97880.97;5058582;28;19925;-61
2023/06/12 11:48:20;;;;;;;;;;;;;;;24.17;33.31;97878.16;5056251;28;19928;-62
2023/06/12 11:50:51;;;;;;;;;;;;;;;24.26;30.40;97873.75;5056190;28;19964;-61
2023/06/12 11:53:20;;;;;;;;;;;;;;;24.23;33.72;97870.97;5056684;28;19955;-61
2023/06/12 11:55:48;;;;;;;;;;;;;;;24.43;30.05;97877.66;5056731;28;19963;-61
2023/06/12 11:58:20;;;;;;;;;;;;;;;24.30;30.01;97873.75;5057229;28;19924;-61
2023/06/12 12:00:51;;;;;;;;;;;;;;;24.45;30.00;97882.81;5039698;28;20420;-61
2023/06/12 12:03:21;;;;;;;;;;;;;;;24.25;30.46;97890.81;5057923;28;20329;-62
2023/06/12 12:05:50;;;;;;;;;;;;;;;24.20;29.72;97882.91;5037828;28;20371;-63
2023/06/12 12:08:25;;;;;;;;;;;;;;;24.38;29.67;97875.31;5056275;28;19983;-62
2023/06/12 12:10:53;;;;;;;;;;;;;;;24.33;29.99;97870.16;5043528;28;19991;-63
2023/06/12 12:13:22;;;;;;;;;;;;;;;24.55;29.03;97874.44;5055395;28;19939;-63
2023/06/12 12:15:50;;;;;;;;;;;;;;;24.54;28.71;97875.63;5056860;28;19982;-63
2023/06/12 12:18:19;;;;;;;;;;;;;;;24.47;27.67;97870.13;5056264;28;19931;-63
2023/06/12 12:20:48;;;;;;;;;;;;;;;24.62;27.82;97867.28;5056453;28;20423;-63
2023/06/12 12:23:16;;;;;;;;;;;;;;;24.39;27.41;97865.78;5062336;28;19926;-63
2023/06/12 12:25:44;;;;;;;;;;;;;;;24.48;27.74;97859.78;5073648;28;19989;-62
2023/06/12 12:28:12;;;;;;;;;;;;;;;24.44;29.04;97865.34;5078990;28;19932;-63
2023/06/12 12:30:42;;;;;;;;;;;;;;;24.44;28.36;97856.25;5069605;28;19920;-63
2023/06/12 12:33:10;;;;;;;;;;;;;;;24.50;28.66;97861.00;5085216;28;19920;-63
2023/06/12 12:35:37;;;;;;;;;;;;;;;24.48;28.09;97854.25;5081096;28;19920;-63
2023/06/12 12:38:08;;;;;;;;;;;;;;;24.41;27.93;97846.75;5081739;28;20030;-63
2023/06/12 12:40:35;;;;;;;;;;;;;;;24.43;27.99;97841.56;5082293;28;19925;-63
2023/06/12 12:43:04;;;;;;;;;;;;;;;24.62;28.07;97853.38;5077523;28;20359;-63
2023/06/12 12:45:32;;;;;;;;;;;;;;;24.49;28.14;97851.06;5080704;28;20335;-62
2023/06/12 12:48:02;;;;;;;;;;;;;;;24.59;27.85;97848.63;5077405;28;20369;-63
2023/06/12 12:50:30;;;;;;;;;;;;;;;24.51;28.86;97842.34;5060450;28;19938;-63
2023/06/12 12:53:00;;;;;;;;;;;;;;;24.44;27.26;97836.81;5075036;28;19936;-62
2023/06/12 12:55:30;;;;;;;;;;;;;;;24.44;27.95;97837.59;5082359;28;19920;-63
2023/06/12 12:57:59;;;;;;;;;;;;;;;24.53;28.20;97846.28;5071837;28;20015;-63
2023/06/12 13:00:45;;;;;;;;;;;;;;;24.42;27.47;97839.22;5081391;28;19997;-62